Tutti
Smithton Airport (Smithton, Tasmania) SIO Meteo
|
Smithton, Tasmania (SIO / YSMI)
Cielo sereno
Ventoso |
|
16 °C |
There is no TAF data available at SIO or any nearby airports.
Storico METAR SIO recente
| Date | Time (AEST) | Flight Rules | Wind Dir. | Speed | Type | Height AGL (ft) | Visibility | Temp (°C) | Temp (°F) | Dew Point (°C) | Dew Point (°F) | Rel. Humid. | Pressure | Density Altitude | Remarks |
|---|---|---|---|---|---|---|---|---|---|---|---|---|---|---|---|
| 09-mag | 13:00 | n/a | 220° | 14 kt | Missing | 16° | 60° | 11° | 51° | 72% | 1024 mb | -168 ft | |||
| 09-mag | 12:00 | n/a | 230° | 15 kt | Missing | 16° | 60° | 12° | 53° | 77% | 1025 mb | -197 ft | |||
| 09-mag | 11:00 | n/a | 240° | 15 kt | Missing | 15° | 59° | 12° | 53° | 82% | 1025 mb | -317 ft | |||
| 09-mag | 10:00 | n/a | 230° | 11 kt | Missing | 13° | 55° | 12° | 53° | 94% | 1025 mb | -557 ft | |||
| 09-mag | 09:00 | n/a | 220° | 11 kt | Missing | 12° | 53° | 11° | 51° | 94% | 1025 mb | -677 ft | |||
| 09-mag | 08:00 | n/a | 210° | 12 kt | Missing | 11° | 51° | 11° | 51° | 100% | 1024 mb | -768 ft | |||
| 09-mag | 07:00 | n/a | 220° | 12 kt | Missing | 11° | 51° | 10° | 50° | 94% | 1024 mb | -768 ft | |||
| 09-mag | 06:00 | n/a | 230° | 9 kt | Missing | 11° | 51° | 10° | 50° | 94% | 1024 mb | -768 ft | |||
| 09-mag | 05:00 | n/a | 220° | 10 kt | Missing | 11° | 51° | 10° | 50° | 94% | 1023 mb | -738 ft | |||
| 09-mag | 04:00 | n/a | 220° | 12 kt | Missing | 10° | 50° | 9° | 48° | 93% | 1023 mb | -858 ft | |||
| 09-mag | 03:00 | n/a | 200° | 14 kt | Missing | 10° | 50° | 9° | 48° | 93% | 1023 mb | -858 ft | |||
| 09-mag | 02:00 | n/a | 210° | 11 kt | Missing | 10° | 50° | 9° | 48° | 93% | 1023 mb | -858 ft | |||
| 09-mag | 01:00 | n/a | 220° | 12 kt | Missing | 10° | 50° | 8° | 46° | 87% | 1023 mb | -858 ft | |||
| 09-mag | 00:00 | n/a | 210° | 11 kt | Missing | 11° | 51° | 8° | 46° | 82% | 1023 mb | -738 ft | |||
| 08-mag | 23:00 | n/a | 210° | 12 kt | Missing | 11° | 51° | 7° | 44° | 76% | 1023 mb | -738 ft | |||
| 08-mag | 22:00 | n/a | 220° | 14 kt | Missing | 11° | 51° | 8° | 46° | 82% | 1022 mb | -709 ft | |||
| 08-mag | 21:00 | n/a | 230° | 8 kt | Missing | 12° | 53° | 8° | 46° | 76% | 1022 mb | -589 ft | |||
| 08-mag | 20:00 | n/a | 230° | 9 kt | Missing | 12° | 53° | 8° | 46° | 76% | 1022 mb | -589 ft | |||
| 08-mag | 19:00 | n/a | 240° | 12 kt | Missing | 12° | 53° | 8° | 46° | 76% | 1022 mb | -589 ft | |||
| 08-mag | 18:00 | n/a | 240° | 12 kt | Missing | 12° | 53° | 9° | 48° | 82% | 1021 mb | -559 ft | |||
| 08-mag | 17:00 | n/a | 240° | 13 kt | Missing | 12° | 53° | 9° | 48° | 82% | 1020 mb | -530 ft | |||
| 08-mag | 16:00 | n/a | 220° | 13 kt | Missing | 13° | 55° | 9° | 48° | 77% | 1020 mb | -410 ft | |||
| 08-mag | 15:00 | n/a | 230° | 19 kt | Missing | 14° | 57° | 9° | 48° | 72% | 1019 mb | -260 ft | |||
| 08-mag | 14:00 | n/a | 220° | 19 kt | Missing | 14° | 57° | 10° | 50° | 77% | 1019 mb | -260 ft |
Accedi
| Il tuo browser non è supportato. fai l'upgrade del tuo browser |
